createdAt,value
2019-02-27T00:01:25.156Z,99982.91
2019-02-27T00:03:55.459Z,99980.06
2019-02-27T00:06:25.833Z,99978.72
2019-02-27T00:08:57.837Z,99980.70
2019-02-27T00:11:28.202Z,99983.02
2019-02-27T00:13:58.574Z,99983.02
2019-02-27T00:16:28.945Z,99980.34
2019-02-27T00:18:59.398Z,99974.27
2019-02-27T00:21:29.779Z,99979.77
2019-02-27T00:24:00.086Z,99982.25
2019-02-27T00:26:30.468Z,99991.35
2019-02-27T00:29:00.781Z,99992.59
2019-02-27T00:31:31.131Z,99987.05
2019-02-27T00:34:01.434Z,99990.25
2019-02-27T00:36:31.780Z,99994.16
2019-02-27T00:39:02.073Z,99994.16
2019-02-27T00:41:32.411Z,99991.52
2019-02-27T00:44:02.723Z,99991.94
2019-02-27T00:46:34.069Z,99989.26
2019-02-27T00:49:04.361Z,99994.28
2019-02-27T00:51:34.812Z,99994.63
2019-02-27T00:54:05.115Z,99984.72
2019-02-27T00:56:35.446Z,99990.50
2019-02-27T00:59:05.749Z,99988.98
2019-02-27T01:01:36.081Z,99994.75
2019-02-27T01:04:06.350Z,99994.23
2019-02-27T01:06:36.677Z,99992.36
2019-02-27T01:09:07.636Z,99991.71
2019-02-27T01:11:37.981Z,99997.78
2019-02-27T01:14:08.286Z,99985.81
2019-02-27T01:16:38.630Z,99992.55
2019-02-27T01:19:08.919Z,99998.02
2019-02-27T01:21:39.264Z,99998.67
2019-02-27T01:24:09.501Z,99994.88
2019-02-27T01:26:39.859Z,99989.73
2019-02-27T01:29:10.162Z,99994.88
2019-02-27T01:31:40.502Z,99989.31
2019-02-27T01:34:11.339Z,100000.08
2019-02-27T01:36:42.263Z,99999.06
2019-02-27T01:39:12.568Z,100005.61
2019-02-27T01:41:43.101Z,100008.98
2019-02-27T01:44:14.233Z,100007.70
2019-02-27T01:46:45.601Z,100010.87
2019-02-27T01:49:16.746Z,100014.84
2019-02-27T01:51:47.412Z,100016.33
2019-02-27T01:54:17.716Z,100013.13
2019-02-27T01:56:48.174Z,100013.44
2019-02-27T01:59:18.468Z,100020.14
2019-02-27T02:01:48.921Z,100015.59
2019-02-27T02:04:20.317Z,100010.48
2019-02-27T02:06:51.279Z,100016.30
2019-02-27T02:09:38.234Z,100019.49
2019-02-27T02:12:20.031Z,100016.45
2019-02-27T02:15:08.437Z,100017.50
2019-02-27T02:17:59.613Z,100015.59
2019-02-27T02:20:50.781Z,100017.45
2019-02-27T02:23:42.000Z,100014.08
2019-02-27T02:26:48.386Z,100008.23
2019-02-27T02:29:21.763Z,100014.12
2019-02-27T02:32:00.810Z,100015.94
2019-02-27T02:34:49.137Z,100010.23
2019-02-27T02:37:48.138Z,100009.05
2019-02-27T02:40:24.492Z,100008.17
2019-02-27T02:43:18.718Z,100014.24
2019-02-27T02:46:08.613Z,100017.75
2019-02-27T02:49:06.281Z,100020.13
2019-02-27T02:51:46.288Z,100024.11
2019-02-27T02:54:28.639Z,100017.41
2019-02-27T02:57:07.776Z,100017.80
2019-02-27T02:59:59.444Z,100025.45
2019-02-27T03:02:43.661Z,100028.62
2019-02-27T03:05:48.531Z,100032.64
2019-02-27T03:08:27.766Z,100030.25
2019-02-27T03:11:19.015Z,100036.66
2019-02-27T03:14:09.138Z,100039.05
2019-02-27T03:16:45.248Z,100039.52
2019-02-27T03:19:33.480Z,100038.65
2019-02-27T03:22:09.520Z,100043.77
2019-02-27T03:24:48.966Z,100047.92
2019-02-27T03:27:50.900Z,100050.43
2019-02-27T03:30:46.955Z,100052.94
2019-02-27T03:33:27.214Z,100057.28
2019-02-27T03:36:21.549Z,100055.94
2019-02-27T03:39:17.515Z,100052.06
2019-02-27T03:41:59.337Z,100052.12
2019-02-27T03:44:40.846Z,100053.30
2019-02-27T03:47:19.799Z,100054.50
2019-02-27T03:49:56.878Z,100052.83
2019-02-27T03:52:39.242Z,100058.48
2019-02-27T03:55:35.143Z,100061.35
2019-02-27T03:58:26.799Z,100064.98
2019-02-27T04:01:30.027Z,100070.86
2019-02-27T04:04:17.262Z,100067.23
2019-02-27T04:07:12.845Z,100074.98
2019-02-27T04:09:43.288Z,100074.25
2019-02-27T04:12:16.607Z,100075.47
2019-02-27T04:14:45.765Z,100076.07
2019-02-27T04:17:16.181Z,100080.28
2019-02-27T04:19:46.651Z,100087.23
2019-02-27T04:22:17.169Z,100083.00
2019-02-27T04:24:47.627Z,100093.39
2019-02-27T04:27:21.184Z,100096.04
2019-02-27T04:29:50.121Z,100088.84
2019-02-27T04:32:20.528Z,100091.70
2019-02-27T04:34:51.002Z,100100.16
2019-02-27T04:37:21.378Z,100102.10
2019-02-27T04:39:51.860Z,100102.27
2019-02-27T04:42:25.369Z,100105.77
2019-02-27T04:44:54.461Z,100106.25
2019-02-27T04:47:28.656Z,100110.45
2019-02-27T04:49:57.962Z,100121.20
2019-02-27T04:52:28.350Z,100121.50
2019-02-27T04:54:58.684Z,100123.02
2019-02-27T04:57:30.787Z,100120.16
2019-02-27T05:00:01.387Z,100121.33
2019-02-27T05:02:31.744Z,100128.05
2019-02-27T05:05:02.184Z,100130.21
2019-02-27T05:07:32.610Z,100133.54
2019-02-27T05:10:06.863Z,100136.05
2019-02-27T05:12:35.188Z,100135.66
2019-02-27T05:15:07.559Z,100138.73
2019-02-27T05:17:37.963Z,100147.18
2019-02-27T05:20:12.439Z,100143.16
2019-02-27T05:22:41.373Z,100148.78
2019-02-27T05:25:12.051Z,100153.12
2019-02-27T05:27:43.785Z,100147.05
2019-02-27T05:30:14.215Z,100154.88
2019-02-27T05:32:44.557Z,100153.45
2019-02-27T05:35:14.997Z,100153.98
2019-02-27T05:37:45.406Z,100157.91
2019-02-27T05:40:15.878Z,100155.05
2019-02-27T05:42:46.284Z,100165.38
2019-02-27T05:45:16.733Z,100172.44
2019-02-27T05:47:47.070Z,100174.50
2019-02-27T05:50:18.477Z,100178.11
2019-02-27T05:52:49.682Z,100169.39
2019-02-27T05:55:20.043Z,100183.31
2019-02-27T05:57:50.642Z,100183.37
2019-02-27T06:00:21.980Z,100187.41
2019-02-27T06:02:52.358Z,100189.48
2019-02-27T06:05:22.827Z,100189.77
2019-02-27T06:07:53.238Z,100198.89
2019-02-27T06:10:23.785Z,100193.19
2019-02-27T06:12:54.282Z,100199.02
2019-02-27T06:15:26.067Z,100197.92
2019-02-27T06:17:56.820Z,100203.70
2019-02-27T06:20:27.231Z,100204.97
2019-02-27T06:22:57.687Z,100205.92
2019-02-27T06:25:28.100Z,100209.79
2019-02-27T06:27:58.567Z,100198.48
2019-02-27T06:30:30.771Z,100203.98
2019-02-27T06:33:01.125Z,100200.13
2019-02-27T06:35:34.184Z,100196.89
2019-02-27T06:38:03.715Z,100201.48
2019-02-27T06:40:34.127Z,100206.48
2019-02-27T06:43:04.581Z,100205.67
2019-02-27T06:45:34.993Z,100202.46
2019-02-27T06:48:09.438Z,100209.23
2019-02-27T06:50:38.524Z,100212.84
2019-02-27T06:53:09.045Z,100209.14
2019-02-27T06:55:39.475Z,100206.63
2019-02-27T06:58:14.452Z,100205.10
2019-02-27T07:00:42.178Z,100208.98
2019-02-27T07:03:12.649Z,100211.41
2019-02-27T07:05:45.504Z,100207.30
2019-02-27T07:08:15.263Z,100204.61
2019-02-27T07:10:47.122Z,100211.67
2019-02-27T07:13:17.578Z,100212.06
2019-02-27T07:15:48.797Z,100214.75
2019-02-27T07:18:21.167Z,100213.98
2019-02-27T07:20:51.603Z,100216.36
2019-02-27T07:23:23.695Z,100215.45
2019-02-27T07:25:54.342Z,100212.48
2019-02-27T07:28:27.917Z,100222.40
2019-02-27T07:30:58.342Z,100217.39
2019-02-27T07:33:28.820Z,100222.04
2019-02-27T07:36:03.153Z,100213.02
2019-02-27T07:38:32.965Z,100217.71
2019-02-27T07:41:03.371Z,100218.33
2019-02-27T07:43:33.709Z,100211.23
2019-02-27T07:46:04.133Z,100214.26
2019-02-27T07:48:34.576Z,100210.03
2019-02-27T07:51:05.875Z,100218.73
2019-02-27T07:53:37.786Z,100222.00
2019-02-27T07:56:08.077Z,100218.59
2019-02-27T07:58:38.512Z,100222.44
2019-02-27T08:01:08.830Z,100225.64
2019-02-27T08:03:39.130Z,100225.06
2019-02-27T08:06:09.518Z,100222.23
2019-02-27T08:08:39.867Z,100226.38
2019-02-27T08:11:13.259Z,100227.62
2019-02-27T08:13:42.603Z,100231.36
2019-02-27T08:16:14.977Z,100227.53
2019-02-27T08:18:45.380Z,100234.33
2019-02-27T08:21:15.705Z,100239.86
2019-02-27T08:23:46.399Z,100247.88
2019-02-27T08:26:18.416Z,100240.46
2019-02-27T08:28:49.024Z,100247.23
2019-02-27T08:31:19.351Z,100258.09
2019-02-27T08:33:49.730Z,100257.11
2019-02-27T08:36:24.518Z,100261.59
2019-02-27T08:38:54.993Z,100255.73
2019-02-27T08:41:25.398Z,100268.92
2019-02-27T08:43:55.897Z,100257.33
2019-02-27T08:46:26.284Z,100251.79
2019-02-27T08:48:56.661Z,100258.44
2019-02-27T08:51:28.039Z,100253.50
2019-02-27T08:53:59.907Z,100251.95
2019-02-27T08:56:30.805Z,100257.11
2019-02-27T08:59:04.985Z,100258.50
2019-02-27T09:01:33.334Z,100261.06
2019-02-27T09:04:06.102Z,100254.17
2019-02-27T09:06:39.054Z,100254.98
2019-02-27T09:09:09.492Z,100258.98
2019-02-27T09:11:40.697Z,100252.95
2019-02-27T09:14:12.027Z,100255.30
2019-02-27T09:16:42.560Z,100257.58
2019-02-27T09:21:43.510Z,100258.17
2019-02-27T09:24:13.855Z,100264.09
2019-02-27T09:26:45.749Z,100256.00
2019-02-27T09:29:18.757Z,100260.09
2019-02-27T09:31:50.990Z,100256.66
2019-02-27T09:34:21.751Z,100253.28
2019-02-27T09:36:52.199Z,100250.89
2019-02-27T09:39:25.041Z,100265.44
2019-02-27T09:41:55.374Z,100259.26
2019-02-27T09:44:26.204Z,100271.30
2019-02-27T09:46:56.616Z,100262.73
2019-02-27T09:49:27.087Z,100274.31
2019-02-27T09:51:57.673Z,100268.51
2019-02-27T09:54:30.770Z,100274.48
2019-02-27T09:57:02.853Z,100267.19
2019-02-27T09:59:33.396Z,100281.30
2019-02-27T10:02:06.345Z,100282.73
2019-02-27T10:04:35.998Z,100293.98
2019-02-27T10:07:06.418Z,100296.77
2019-02-27T10:09:36.884Z,100292.73
2019-02-27T10:12:07.291Z,100294.87
2019-02-27T10:14:37.761Z,100285.34
2019-02-27T10:17:09.199Z,100276.67
2019-02-27T10:19:42.225Z,100273.32
2019-02-27T10:22:13.581Z,100267.11
2019-02-27T10:24:44.313Z,100267.53
2019-02-27T10:27:14.845Z,100256.95
2019-02-27T10:29:47.892Z,100262.97
2019-02-27T10:32:18.332Z,100268.69
2019-02-27T10:34:51.019Z,100261.95
2019-02-27T10:37:20.892Z,100260.76
2019-02-27T10:39:51.466Z,100268.72
2019-02-27T10:42:21.796Z,100265.39
2019-02-27T10:44:52.242Z,100255.03
2019-02-27T10:47:27.245Z,100257.56
2019-02-27T10:50:01.753Z,100264.10
2019-02-27T10:52:32.865Z,100261.76
2019-02-27T10:55:05.834Z,100270.38
2019-02-27T10:57:38.569Z,100261.20
2019-02-27T11:00:25.906Z,100265.31
2019-02-27T11:02:56.651Z,100272.84
2019-02-27T11:05:28.914Z,100266.07
2019-02-27T11:07:59.344Z,100270.00
2019-02-27T11:10:32.493Z,100271.30
2019-02-27T11:13:06.877Z,100267.35
2019-02-27T11:15:41.109Z,100264.77
2019-02-27T11:18:09.745Z,100271.52
2019-02-27T11:20:40.485Z,100268.08
2019-02-27T11:23:10.829Z,100273.16
2019-02-27T11:25:41.358Z,100267.49
2019-02-27T11:28:11.675Z,100264.84
2019-02-27T11:30:43.114Z,100264.03
2019-02-27T11:33:24.828Z,100264.80
2019-02-27T11:35:46.550Z,100264.84
2019-02-27T11:38:16.990Z,100257.80
2019-02-27T11:40:47.464Z,100263.83
2019-02-27T11:43:17.875Z,100260.30
2019-02-27T11:45:48.321Z,100272.28
2019-02-27T11:48:20.370Z,100275.63
2019-02-27T11:50:50.966Z,100271.57
2019-02-27T11:53:22.350Z,100271.57
2019-02-27T11:56:04.143Z,100278.64
2019-02-27T11:58:45.544Z,100280.28
2019-02-27T12:01:16.143Z,100280.79
2019-02-27T12:03:46.588Z,100285.19
2019-02-27T12:06:18.502Z,100279.75
2019-02-27T12:08:49.014Z,100279.33
2019-02-27T12:11:19.362Z,100280.66
2019-02-27T12:17:13.386Z,100285.63
2019-02-27T12:19:45.219Z,100286.77
2019-02-27T12:22:19.190Z,100280.83
2019-02-27T12:24:52.871Z,100287.77
2019-02-27T12:27:47.435Z,100292.23
2019-02-27T12:29:55.871Z,100299.48
2019-02-27T12:32:26.253Z,100293.42
2019-02-27T12:34:59.619Z,100293.95
2019-02-27T12:37:34.062Z,100295.01
2019-02-27T12:40:02.520Z,100299.91
2019-02-27T12:42:37.292Z,100297.13
2019-02-27T12:45:07.153Z,100303.72
2019-02-27T12:47:40.611Z,100306.38
2019-02-27T12:50:12.397Z,100298.72
2019-02-27T12:52:47.937Z,100302.44
2019-02-27T12:57:22.177Z,100303.94
2019-02-27T12:59:54.778Z,100302.19
2019-02-27T13:02:35.218Z,100293.37
2019-02-27T13:04:57.974Z,100302.63
2019-02-27T13:07:28.364Z,100304.98
2019-02-27T13:09:59.437Z,100304.42
2019-02-27T13:12:29.978Z,100308.70
2019-02-27T13:15:00.507Z,100306.93
2019-02-27T13:17:31.132Z,100304.70
2019-02-27T13:20:11.708Z,100308.87
2019-02-27T13:22:42.919Z,100311.16
2019-02-27T13:25:15.182Z,100306.66
2019-02-27T13:27:51.736Z,100315.20
2019-02-27T13:30:31.069Z,100317.97
2019-02-27T13:33:04.608Z,100317.40
2019-02-27T13:35:35.074Z,100318.83
2019-02-27T13:38:05.684Z,100327.11
2019-02-27T13:40:36.367Z,100320.84
2019-02-27T13:43:06.835Z,100326.56
2019-02-27T13:45:39.995Z,100325.30
2019-02-27T13:48:10.387Z,100325.77
2019-02-27T13:50:40.815Z,100324.91
2019-02-27T13:53:11.261Z,100325.02
2019-02-27T13:55:41.709Z,100327.52
2019-02-27T13:58:13.629Z,100318.09
2019-02-27T14:00:44.285Z,100328.17
2019-02-27T14:03:16.044Z,100331.23
2019-02-27T14:05:46.559Z,100329.15
2019-02-27T14:08:16.857Z,100335.55
2019-02-27T14:10:47.314Z,100340.47
2019-02-27T14:13:17.724Z,100333.05
2019-02-27T14:15:48.942Z,100346.36
2019-02-27T14:18:19.876Z,100345.36
2019-02-27T14:20:50.396Z,100340.92
2019-02-27T14:23:20.712Z,100334.09
2019-02-27T14:25:51.738Z,100340.41
2019-02-27T14:28:23.606Z,100345.61
2019-02-27T14:30:57.068Z,100347.66
2019-02-27T14:33:27.522Z,100349.61
2019-02-27T14:35:57.949Z,100350.24
2019-02-27T14:38:28.356Z,100352.45
2019-02-27T14:41:14.358Z,100354.68
2019-02-27T14:45:25.864Z,100354.93
2019-02-27T14:47:56.337Z,100345.55
2019-02-27T14:50:26.872Z,100350.88
2019-02-27T14:52:57.493Z,100356.73
2019-02-27T14:55:27.905Z,100356.85
2019-02-27T14:57:58.408Z,100360.52
2019-02-27T15:00:32.453Z,100365.69
2019-02-27T15:03:04.491Z,100367.19
2019-02-27T15:05:37.115Z,100367.38
2019-02-27T15:08:09.731Z,100358.97
2019-02-27T15:10:41.655Z,100356.69
2019-02-27T15:13:12.364Z,100357.83
2019-02-27T15:15:43.723Z,100353.39
2019-02-27T15:18:15.846Z,100362.08
2019-02-27T15:20:46.477Z,100366.51
2019-02-27T15:23:17.099Z,100369.44
2019-02-27T15:25:47.553Z,100376.61
2019-02-27T15:28:18.242Z,100378.98
2019-02-27T15:30:50.253Z,100386.67
2019-02-27T15:33:26.660Z,100378.84
2019-02-27T15:36:00.109Z,100378.84
2019-02-27T15:38:31.571Z,100387.75
2019-02-27T15:41:03.227Z,100381.84
2019-02-27T15:43:45.247Z,100375.17
2019-02-27T15:46:16.302Z,100394.74
2019-02-27T15:48:46.830Z,100398.25
2019-02-27T15:51:18.343Z,100400.02
2019-02-27T15:53:50.167Z,100413.75
2019-02-27T15:56:21.230Z,100413.47
2019-02-27T15:58:51.678Z,100418.56
2019-02-27T16:01:24.805Z,100417.70
2019-02-27T16:03:55.214Z,100423.45
2019-02-27T16:06:26.447Z,100421.68
2019-02-27T16:08:58.316Z,100419.18
